createdAt,value
2022-12-08T00:00:33.269Z,97684.84
2022-12-08T00:02:36.417Z,97679.06
2022-12-08T00:04:59.579Z,97687.72
2022-12-08T00:07:19.999Z,97679.34
2022-12-08T00:09:23.701Z,97677.84
2022-12-08T00:11:26.689Z,97678.81
2022-12-08T00:13:29.690Z,97673.72
2022-12-08T00:15:34.099Z,97673.72
2022-12-08T00:17:37.116Z,97673.72
2022-12-08T00:19:41.097Z,97675.78
2022-12-08T00:21:44.175Z,97674.81
2022-12-08T00:23:47.275Z,97671.44
2022-12-08T00:25:50.334Z,97677.53
2022-12-08T00:27:53.495Z,97671.44
2022-12-08T00:29:56.460Z,97672.44
2022-12-08T00:32:00.972Z,97676.66
2022-12-08T00:34:04.140Z,97673.19
2022-12-08T00:36:08.058Z,97675.63
2022-12-08T00:38:11.031Z,97679.97
2022-12-08T00:40:14.176Z,97674.03
2022-12-08T00:42:17.510Z,97673.28
2022-12-08T00:44:20.772Z,97675.91
2022-12-08T00:46:23.783Z,97668.19
2022-12-08T00:48:28.211Z,97660.53
2022-12-08T00:50:32.645Z,97660.47
2022-12-08T00:52:35.615Z,97662.06
2022-12-08T00:54:38.805Z,97665.53
2022-12-08T00:56:41.849Z,97660.38
2022-12-08T00:58:44.889Z,97660.16
2022-12-08T01:00:47.889Z,97656.75
2022-12-08T01:02:51.015Z,97662.66
2022-12-08T01:04:55.526Z,97652.22
2022-12-08T01:06:58.540Z,97652.06
2022-12-08T01:09:02.496Z,97652.06
2022-12-08T01:11:06.051Z,97654.66
2022-12-08T01:13:09.124Z,97657.22
2022-12-08T01:15:12.484Z,97653.72
2022-12-08T01:17:15.476Z,97652.06
2022-12-08T01:19:18.710Z,97646.06
2022-12-08T01:21:23.121Z,97654.56
2022-12-08T01:23:26.127Z,97645.91
2022-12-08T01:25:29.119Z,97644.13
2022-12-08T01:27:32.163Z,97647.53
2022-12-08T01:29:35.557Z,97655.41
2022-12-08T01:31:38.722Z,97649.19
2022-12-08T01:33:42.104Z,97651.13
2022-12-08T01:35:45.267Z,97653.72
2022-12-08T01:37:51.440Z,97653.88
2022-12-08T01:39:54.431Z,97644.56
2022-12-08T01:41:57.392Z,97650.53
2022-12-08T01:44:02.205Z,97649.78
2022-12-08T01:46:05.557Z,97648.19
2022-12-08T01:48:12.399Z,97650.69
2022-12-08T01:50:17.273Z,97645.47
2022-12-08T01:52:25.037Z,97648.72
2022-12-08T01:54:31.833Z,97644.56
2022-12-08T01:56:39.746Z,97648.72
2022-12-08T01:58:46.449Z,97643.47
2022-12-08T02:00:50.233Z,97640.91
2022-12-08T02:02:56.578Z,97641.91
2022-12-08T02:04:59.751Z,97637.66
2022-12-08T02:07:07.948Z,97634.25
2022-12-08T02:09:12.014Z,97636.84
2022-12-08T02:11:17.227Z,97641.91
2022-12-08T02:13:21.568Z,97632.66
2022-12-08T02:15:32.637Z,97627.84
2022-12-08T02:17:50.676Z,97618.84
2022-12-08T02:20:21.319Z,97620.78
2022-12-08T02:22:29.463Z,97624.28
2022-12-08T02:24:38.420Z,97608.84
2022-12-08T02:27:09.520Z,97613.97
2022-12-08T02:29:36.302Z,97607.44
2022-12-08T02:31:52.115Z,97605.09
2022-12-08T02:34:06.428Z,97599.09
2022-12-08T02:36:15.820Z,97595.06
2022-12-08T02:38:22.868Z,97600.44
2022-12-08T02:40:29.969Z,97598.00
2022-12-08T02:42:36.588Z,97589.53
2022-12-08T02:44:42.933Z,97591.19
2022-12-08T02:46:57.286Z,97594.06
2022-12-08T02:49:02.150Z,97589.94
2022-12-08T02:51:06.782Z,97591.00
2022-12-08T02:55:19.694Z,97587.88
2022-12-08T02:57:33.171Z,97586.47
2022-12-08T02:59:49.027Z,97575.34
2022-12-08T03:02:11.404Z,97579.00
2022-12-08T03:04:23.830Z,97565.19
2022-12-08T03:06:29.960Z,97566.19
2022-12-08T03:08:36.418Z,97556.09
2022-12-08T03:10:43.341Z,97565.75
2022-12-08T03:12:50.657Z,97564.94
2022-12-08T03:14:55.323Z,97568.47
2022-12-08T03:16:59.020Z,97556.66
2022-12-08T03:19:04.676Z,97558.38
2022-12-08T03:21:10.454Z,97558.59
2022-12-08T03:23:15.372Z,97559.53
2022-12-08T03:25:22.202Z,97553.59
2022-12-08T03:27:27.520Z,97558.81
2022-12-08T03:29:30.795Z,97548.38
2022-12-08T03:31:35.751Z,97552.56
2022-12-08T03:33:40.755Z,97547.47
2022-12-08T03:35:44.340Z,97542.41
2022-12-08T03:37:48.881Z,97543.28
2022-12-08T03:39:51.849Z,97544.22
2022-12-08T03:41:54.906Z,97539.97
2022-12-08T03:43:59.421Z,97537.41
2022-12-08T03:46:02.581Z,97525.28
2022-12-08T03:48:05.826Z,97526.28
2022-12-08T03:50:09.758Z,97532.25
2022-12-08T03:52:12.802Z,97528.13
2022-12-08T03:54:17.128Z,97514.53
2022-12-08T03:56:24.350Z,97511.41
2022-12-08T03:58:28.471Z,97516.56
2022-12-08T04:00:33.838Z,97511.28
2022-12-08T04:02:36.898Z,97517.31
2022-12-08T04:04:39.990Z,97518.91
2022-12-08T04:06:43.085Z,97523.78
2022-12-08T04:08:46.188Z,97524.06
2022-12-08T04:10:50.586Z,97521.91
2022-12-08T04:12:53.580Z,97519.59
2022-12-08T04:14:56.515Z,97514.59
2022-12-08T04:16:59.504Z,97513.06
2022-12-08T04:19:02.625Z,97507.22
2022-12-08T04:21:05.806Z,97502.91
2022-12-08T04:23:12.002Z,97506.53
2022-12-08T04:25:15.488Z,97501.41
2022-12-08T04:27:19.821Z,97499.72
2022-12-08T04:29:22.798Z,97501.72
2022-12-08T04:31:25.802Z,97498.44
2022-12-08T04:33:28.976Z,97505.25
2022-12-08T04:35:32.507Z,97503.59
2022-12-08T04:37:35.498Z,97498.50
2022-12-08T04:39:38.469Z,97509.09
2022-12-08T04:41:41.447Z,97503.16
2022-12-08T04:43:45.735Z,97505.81
2022-12-08T04:45:48.725Z,97502.53
2022-12-08T04:47:51.785Z,97497.59
2022-12-08T04:49:54.783Z,97499.28
2022-12-08T04:51:57.753Z,97495.84
2022-12-08T04:54:00.788Z,97488.16
2022-12-08T04:56:03.929Z,97489.00
2022-12-08T04:58:07.041Z,97493.34
2022-12-08T05:00:14.699Z,97486.69
2022-12-08T05:02:17.787Z,97481.75
2022-12-08T05:04:20.880Z,97485.91
2022-12-08T05:06:24.628Z,97487.72
2022-12-08T05:08:27.699Z,97488.47
2022-12-08T05:10:30.690Z,97481.69
2022-12-08T05:12:33.649Z,97487.72
2022-12-08T05:14:36.763Z,97495.38
2022-12-08T05:16:41.240Z,97486.03
2022-12-08T05:18:44.512Z,97492.03
2022-12-08T05:20:47.845Z,97480.28
2022-12-08T05:22:50.875Z,97483.75
2022-12-08T05:24:53.804Z,97480.34
2022-12-08T05:26:56.741Z,97482.97
2022-12-08T05:28:59.688Z,97481.38
2022-12-08T05:31:02.795Z,97487.50
2022-12-08T05:33:07.195Z,97485.88
2022-12-08T05:35:10.689Z,97479.28
2022-12-08T05:37:13.719Z,97479.47
2022-12-08T05:39:16.967Z,97477.88
2022-12-08T05:41:21.622Z,97471.78
2022-12-08T05:43:24.808Z,97477.81
2022-12-08T05:45:28.057Z,97472.84
2022-12-08T05:47:35.890Z,97479.63
2022-12-08T05:49:40.664Z,97481.31
2022-12-08T05:51:43.867Z,97472.78
2022-12-08T05:53:47.642Z,97471.13
2022-12-08T05:55:50.631Z,97467.03
2022-12-08T05:57:57.364Z,97470.41
2022-12-08T06:00:00.711Z,97465.41
2022-12-08T06:02:04.130Z,97469.66
2022-12-08T06:04:07.423Z,97467.09
2022-12-08T06:06:11.813Z,97481.59
2022-12-08T06:08:14.962Z,97471.44
2022-12-08T06:10:18.303Z,97477.50
2022-12-08T06:12:21.833Z,97469.84
2022-12-08T06:14:24.823Z,97476.69
2022-12-08T06:16:28.981Z,97476.69
2022-12-08T06:18:33.026Z,97480.31
2022-12-08T06:20:36.185Z,97475.25
2022-12-08T06:22:40.624Z,97468.38
2022-12-08T06:24:43.726Z,97476.19
2022-12-08T06:26:46.954Z,97477.03
2022-12-08T06:28:50.399Z,97480.31
2022-12-08T06:30:53.402Z,97486.97
2022-12-08T06:32:56.486Z,97480.06
2022-12-08T06:34:59.449Z,97482.63
2022-12-08T06:37:02.460Z,97488.66
2022-12-08T06:39:06.969Z,97486.16
2022-12-08T06:41:10.029Z,97486.22
2022-12-08T06:43:12.040Z,97483.72
2022-12-08T06:45:16.746Z,97483.00
2022-12-08T06:47:24.647Z,97481.25
2022-12-08T06:49:29.076Z,97486.34
2022-12-08T06:51:33.736Z,97490.66
2022-12-08T06:53:36.894Z,97479.66
2022-12-08T06:56:01.322Z,97488.16
2022-12-08T06:58:04.343Z,97483.31
2022-12-08T07:00:08.658Z,97483.38
2022-12-08T07:02:12.399Z,97485.31
2022-12-08T07:04:15.481Z,97483.69
2022-12-08T07:06:21.780Z,97490.44
2022-12-08T07:08:25.009Z,97487.94
2022-12-08T07:10:28.202Z,97491.59
2022-12-08T07:12:32.541Z,97482.34
2022-12-08T07:14:35.607Z,97484.00
2022-12-08T07:16:39.325Z,97489.03
2022-12-08T07:18:42.963Z,97482.09
2022-12-08T07:20:46.056Z,97485.44
2022-12-08T07:22:50.142Z,97486.03
2022-12-08T07:24:53.142Z,97484.94
2022-12-08T07:26:56.111Z,97486.47
2022-12-08T07:29:01.337Z,97492.22
2022-12-08T07:31:06.003Z,97489.72
2022-12-08T07:33:09.184Z,97489.78
2022-12-08T07:35:12.554Z,97489.97
2022-12-08T07:37:15.591Z,97488.28
2022-12-08T07:39:18.571Z,97484.84
2022-12-08T07:41:23.690Z,97488.22
2022-12-08T07:43:27.234Z,97492.22
2022-12-08T07:45:32.019Z,97495.53
2022-12-08T07:47:35.119Z,97486.78
2022-12-08T07:49:38.115Z,97488.19
2022-12-08T07:51:42.216Z,97485.06
2022-12-08T07:53:53.206Z,97494.53
2022-12-08T07:55:56.763Z,97493.47
2022-12-08T07:57:59.752Z,97496.06
2022-12-08T08:00:03.804Z,97496.25
2022-12-08T08:02:26.962Z,97497.47
2022-12-08T08:04:30.154Z,97492.78
2022-12-08T08:06:34.512Z,97501.78
2022-12-08T08:08:37.504Z,97495.66
2022-12-08T08:10:40.538Z,97504.28
2022-12-08T08:12:43.611Z,97496.78
2022-12-08T08:14:46.687Z,97495.28
2022-12-08T08:16:49.858Z,97501.38
2022-12-08T08:18:54.664Z,97496.44
2022-12-08T08:20:58.135Z,97497.28
2022-12-08T08:23:01.303Z,97485.47
2022-12-08T08:25:04.817Z,97491.72
2022-12-08T08:27:07.924Z,97487.50
2022-12-08T08:29:11.050Z,97483.03
2022-12-08T08:31:14.170Z,97487.91
2022-12-08T08:33:17.295Z,97487.78
2022-12-08T08:35:21.593Z,97487.19
2022-12-08T08:37:24.666Z,97491.31
2022-12-08T08:39:30.355Z,97498.78
2022-12-08T08:41:33.428Z,97497.44
2022-12-08T08:43:38.552Z,97501.53
2022-12-08T08:45:42.396Z,97505.59
2022-12-08T08:47:45.403Z,97509.06
2022-12-08T08:49:48.661Z,97507.28
2022-12-08T08:51:53.156Z,97505.44
2022-12-08T08:53:56.204Z,97502.53
2022-12-08T08:56:02.444Z,97507.38
2022-12-08T08:58:05.722Z,97509.00
2022-12-08T09:00:10.773Z,97509.00
2022-12-08T09:02:17.251Z,97508.94
2022-12-08T09:04:20.963Z,97511.44
2022-12-08T09:06:24.820Z,97510.00
2022-12-08T09:08:29.365Z,97507.66
2022-12-08T09:10:32.633Z,97503.06
2022-12-08T09:12:35.657Z,97506.31
2022-12-08T09:14:38.798Z,97502.63
2022-12-08T09:16:42.567Z,97506.53
2022-12-08T09:18:45.836Z,97507.03
2022-12-08T09:20:48.948Z,97503.75
2022-12-08T09:22:52.169Z,97508.50
2022-12-08T09:24:56.593Z,97505.22
2022-12-08T09:26:59.621Z,97512.09
2022-12-08T09:29:02.777Z,97503.72
2022-12-08T09:31:06.124Z,97509.38
2022-12-08T09:33:10.226Z,97507.94
2022-12-08T09:35:13.444Z,97499.81
2022-12-08T09:37:16.709Z,97505.25
2022-12-08T09:39:19.740Z,97500.63
2022-12-08T09:41:40.288Z,97505.44
2022-12-08T09:43:54.099Z,97509.97
2022-12-08T09:45:57.310Z,97502.56
2022-12-08T09:48:04.431Z,97501.47
2022-12-08T09:50:14.078Z,97492.59
2022-12-08T09:52:21.832Z,97499.03
2022-12-08T09:54:30.735Z,97489.88
2022-12-08T09:56:37.691Z,97488.59
2022-12-08T09:58:47.654Z,97486.63
2022-12-08T10:00:50.713Z,97480.22
2022-12-08T10:02:53.879Z,97474.66
2022-12-08T10:04:58.027Z,97474.25
2022-12-08T10:07:05.844Z,97474.72
2022-12-08T10:09:22.671Z,97467.28
2022-12-08T10:11:31.121Z,97467.81
2022-12-08T10:13:39.964Z,97466.81
2022-12-08T10:15:47.264Z,97466.91
2022-12-08T10:17:52.045Z,97459.31
2022-12-08T10:19:58.985Z,97449.63
2022-12-08T10:22:02.581Z,97457.66
2022-12-08T10:24:13.032Z,97454.81
2022-12-08T10:26:18.386Z,97445.56
2022-12-08T10:28:21.364Z,97450.75
2022-12-08T10:30:25.803Z,97445.56
2022-12-08T10:32:35.078Z,97444.56
2022-12-08T10:35:05.852Z,97442.41
2022-12-08T10:37:10.832Z,97435.78
2022-12-08T10:39:32.432Z,97439.28
2022-12-08T10:41:35.678Z,97441.38
2022-12-08T10:43:43.921Z,97438.28
2022-12-08T10:45:48.538Z,97435.69
2022-12-08T10:47:59.400Z,97431.44
2022-12-08T10:50:21.110Z,97432.28
2022-12-08T10:52:24.404Z,97421.91
2022-12-08T10:54:29.654Z,97425.13
2022-12-08T10:56:33.241Z,97421.69
2022-12-08T10:58:40.476Z,97421.16
2022-12-08T11:00:43.565Z,97413.59
2022-12-08T11:03:02.064Z,97415.47
2022-12-08T11:05:05.354Z,97411.19
2022-12-08T11:07:10.992Z,97410.47
2022-12-08T11:09:37.832Z,97404.00
2022-12-08T11:11:45.898Z,97403.19
2022-12-08T11:13:49.967Z,97394.59
2022-12-08T11:15:53.995Z,97390.13
2022-12-08T11:18:04.096Z,97387.66
2022-12-08T11:20:21.738Z,97389.50
2022-12-08T11:22:27.403Z,97380.88
2022-12-08T11:24:34.690Z,97381.19
2022-12-08T11:26:40.499Z,97381.28
2022-12-08T11:28:43.574Z,97372.88
2022-12-08T11:30:49.133Z,97373.19
2022-12-08T11:32:54.759Z,97370.59
2022-12-08T11:35:02.660Z,97362.91
2022-12-08T11:37:06.784Z,97360.63
2022-12-08T11:39:11.598Z,97361.47
2022-12-08T11:41:17.638Z,97353.72
2022-12-08T11:43:24.259Z,97361.34
2022-12-08T11:45:30.859Z,97357.03
2022-12-08T11:47:37.747Z,97357.13
2022-12-08T11:49:42.461Z,97350.06
2022-12-08T11:51:49.646Z,97355.06
2022-12-08T11:54:06.363Z,97352.16
2022-12-08T11:56:16.454Z,97357.25
2022-12-08T11:58:21.609Z,97354.66
2022-12-08T12:00:25.119Z,97347.59
2022-12-08T12:02:30.040Z,97347.50
2022-12-08T12:04:34.829Z,97345.56
2022-12-08T12:07:09.046Z,97348.06
2022-12-08T12:09:16.591Z,97346.19
2022-12-08T12:11:39.944Z,97339.97
2022-12-08T12:14:00.722Z,97341.63
2022-12-08T12:16:31.553Z,97341.63
2022-12-08T12:18:40.323Z,97340.19
2022-12-08T12:20:49.209Z,97340.38
2022-12-08T12:22:57.940Z,97339.53
2022-12-08T12:25:01.247Z,97335.31
2022-12-08T12:27:09.142Z,97336.94
2022-12-08T12:29:17.419Z,97326.69
2022-12-08T12:31:24.586Z,97326.47
2022-12-08T12:33:28.864Z,97330.84
2022-12-08T12:35:34.874Z,97326.28
2022-12-08T12:37:40.619Z,97327.94
2022-12-08T12:39:51.688Z,97324.44
2022-12-08T12:41:57.520Z,97320.88
2022-12-08T12:44:40.735Z,97321.75
2022-12-08T12:46:55.568Z,97318.19
2022-12-08T12:49:45.785Z,97312.09
2022-12-08T12:51:55.300Z,97310.22
2022-12-08T12:54:21.772Z,97302.44
2022-12-08T12:56:51.899Z,97307.44
2022-12-08T12:58:55.353Z,97305.78
2022-12-08T13:01:31.666Z,97295.41
2022-12-08T13:03:36.015Z,97296.25
2022-12-08T13:05:49.782Z,97293.44
2022-12-08T13:07:55.249Z,97296.84
2022-12-08T13:10:01.631Z,97290.84
2022-12-08T13:12:11.528Z,97296.03
2022-12-08T13:14:28.384Z,97287.53
2022-12-08T13:16:34.350Z,97284.97
2022-12-08T13:18:39.168Z,97288.38
2022-12-08T13:20:44.249Z,97290.03
2022-12-08T13:23:05.177Z,97287.53
2022-12-08T13:25:47.648Z,97279.13
2022-12-08T13:27:55.253Z,97281.50
2022-12-08T13:30:31.599Z,97278.00
2022-12-08T13:33:17.239Z,97277.91
2022-12-08T13:35:19.181Z,97273.63
2022-12-08T13:37:27.269Z,97276.13
2022-12-08T13:39:35.107Z,97273.44
2022-12-08T13:41:40.197Z,97270.03
2022-12-08T13:44:20.064Z,97275.09
2022-12-08T13:47:02.841Z,97273.44
2022-12-08T13:50:15.613Z,97275.50
2022-12-08T13:58:28.056Z,97269.81
2022-12-08T14:00:32.837Z,97271.44
2022-12-08T14:02:40.823Z,97267.22
2022-12-08T14:07:13.021Z,97265.44
2022-12-08T14:09:18.420Z,97268.88
2022-12-08T14:11:34.465Z,97269.81
2022-12-08T14:13:37.586Z,97274.91
2022-12-08T14:15:42.091Z,97268.88
2022-12-08T14:17:51.869Z,97269.81
2022-12-08T14:19:56.860Z,97268.88
2022-12-08T14:22:01.534Z,97266.28
2022-12-08T14:24:04.913Z,97268.03
2022-12-08T14:26:08.178Z,97254.38
2022-12-08T14:28:11.816Z,97258.69
2022-12-08T14:30:21.228Z,97262.44
2022-12-08T14:32:31.363Z,97253.22
2022-12-08T14:34:40.552Z,97259.09
2022-12-08T14:36:43.771Z,97259.97
2022-12-08T14:38:46.944Z,97259.97
2022-12-08T14:40:51.737Z,97270.31
2022-12-08T14:43:05.255Z,97261.69
2022-12-08T14:45:12.706Z,97264.28
2022-12-08T14:47:20.947Z,97266.88
2022-12-08T14:49:34.856Z,97273.94
2022-12-08T14:51:38.007Z,97269.69
2022-12-08T14:53:42.845Z,97268.84
2022-12-08T14:55:47.559Z,97267.28
2022-12-08T14:57:50.554Z,97272.47
2022-12-08T14:59:53.682Z,97277.75
2022-12-08T15:02:13.881Z,97276.94
2022-12-08T15:04:20.900Z,97270.09
2022-12-08T15:06:25.786Z,97272.78
2022-12-08T15:08:29.931Z,97262.63
2022-12-08T15:10:38.135Z,97266.34
2022-12-08T15:12:41.493Z,97257.22
2022-12-08T15:14:56.559Z,97258.38
2022-12-08T15:16:59.707Z,97255.22
2022-12-08T15:19:08.808Z,97265.69
2022-12-08T15:21:14.934Z,97258.03
2022-12-08T15:23:30.737Z,97257.41
2022-12-08T15:25:35.043Z,97251.41
2022-12-08T15:27:48.335Z,97255.72
2022-12-08T15:29:53.898Z,97259.19
2022-12-08T15:31:58.740Z,97249.03
2022-12-08T15:34:02.287Z,97251.50
2022-12-08T15:36:05.813Z,97246.44
2022-12-08T15:38:18.229Z,97254.19
2022-12-08T15:40:26.039Z,97253.44
2022-12-08T15:42:29.169Z,97252.63
2022-12-08T15:44:33.005Z,97255.50
2022-12-08T15:46:36.261Z,97255.72
2022-12-08T15:48:39.530Z,97253.22
2022-12-08T15:50:42.708Z,97254.03
2022-12-08T15:52:45.885Z,97252.31
2022-12-08T15:54:50.211Z,97252.41
2022-12-08T15:57:18.698Z,97250.84
2022-12-08T15:59:20.780Z,97254.25
2022-12-08T16:01:24.100Z,97247.31
2022-12-08T16:06:20.527Z,97250.53
2022-12-08T16:08:44.561Z,97238.50
2022-12-08T16:11:24.188Z,97248.03
2022-12-08T16:15:53.637Z,97240.38
2022-12-08T16:18:02.634Z,97228.34
2022-12-08T16:20:08.564Z,97236.13
2022-12-08T16:22:51.718Z,97234.47
2022-12-08T16:24:41.488Z,97234.78
2022-12-08T16:27:58.110Z,97229.81
2022-12-08T16:29:09.669Z,97232.69
2022-12-08T16:31:17.744Z,97227.69
2022-12-08T16:33:24.869Z,97228.09
2022-12-08T16:35:29.232Z,97235.34
2022-12-08T16:37:32.438Z,97237.94
2022-12-08T16:39:38.726Z,97231.91
2022-12-08T16:42:01.907Z,97230.97
2022-12-08T16:44:07.377Z,97228.50
2022-12-08T16:46:18.870Z,97225.19
2022-12-08T16:48:22.763Z,97226.09
2022-12-08T16:50:27.378Z,97221.22
2022-12-08T16:52:30.476Z,97223.28
2022-12-08T16:54:33.503Z,97224.09
2022-12-08T16:56:36.629Z,97223.28
2022-12-08T16:58:39.902Z,97224.19
2022-12-08T17:00:43.408Z,97212.06
2022-12-08T17:02:49.656Z,97213.94
2022-12-08T17:04:54.030Z,97214.13
2022-12-08T17:06:58.222Z,97217.66
2022-12-08T17:09:01.992Z,97218.59
2022-12-08T17:11:10.254Z,97225.44
2022-12-08T17:13:16.899Z,97222.09
2022-12-08T17:15:23.815Z,97217.88
2022-12-08T17:17:27.045Z,97222.34
2022-12-08T17:19:31.464Z,97216.25
2022-12-08T17:21:35.611Z,97226.69
2022-12-08T17:23:40.909Z,97225.03
2022-12-08T17:25:45.708Z,97227.47
2022-12-08T17:27:48.805Z,97220.56
2022-12-08T17:29:52.024Z,97222.19
2022-12-08T17:31:55.120Z,97222.28
2022-12-08T17:33:59.385Z,97218.94
2022-12-08T17:36:04.126Z,97217.19
2022-12-08T17:38:07.144Z,97220.72
2022-12-08T17:40:10.938Z,97220.81
2022-12-08T17:42:14.001Z,97223.41
2022-12-08T17:44:18.365Z,97213.97
2022-12-08T17:46:22.551Z,97218.41
2022-12-08T17:48:25.738Z,97210.75
2022-12-08T17:50:28.774Z,97215.25
2022-12-08T17:52:33.193Z,97222.09
2022-12-08T17:54:36.453Z,97215.16
2022-12-08T17:56:39.599Z,97222.09
2022-12-08T17:58:42.757Z,97231.53
2022-12-08T18:00:45.944Z,97227.28
2022-12-08T18:02:49.012Z,97223.78
2022-12-08T18:04:52.068Z,97222.81
2022-12-08T18:06:55.322Z,97220.25
2022-12-08T18:09:00.839Z,97216.75
2022-12-08T18:11:04.655Z,97218.41
2022-12-08T18:13:07.829Z,97215.81
2022-12-08T18:15:13.547Z,97222.72
2022-12-08T18:17:16.989Z,97226.38
2022-12-08T18:19:20.331Z,97221.19
2022-12-08T18:21:23.962Z,97229.03
2022-12-08T18:23:27.163Z,97220.34
2022-12-08T18:25:31.692Z,97229.88
2022-12-08T18:27:39.915Z,97232.66
2022-12-08T18:29:45.938Z,97234.31
2022-12-08T18:31:50.157Z,97226.47
2022-12-08T18:33:53.505Z,97224.69
2022-12-08T18:35:56.579Z,97217.84
2022-12-08T18:38:00.192Z,97211.13
2022-12-08T18:40:03.619Z,97208.75
2022-12-08T18:42:22.543Z,97203.66
2022-12-08T18:44:26.249Z,97203.00
2022-12-08T18:46:29.428Z,97204.25
2022-12-08T18:48:32.516Z,97212.28
2022-12-08T18:50:35.765Z,97205.63
2022-12-08T18:52:38.883Z,97205.63
2022-12-08T18:55:05.053Z,97211.66
2022-12-08T18:57:05.279Z,97211.66
2022-12-08T18:59:12.266Z,97211.66
2022-12-08T19:01:15.651Z,97205.81
2022-12-08T19:03:18.744Z,97201.50
2022-12-08T19:05:21.777Z,97202.50
2022-12-08T19:07:24.857Z,97206.78
2022-12-08T19:09:28.991Z,97198.06
2022-12-08T19:11:32.174Z,97201.50
2022-12-08T19:13:35.264Z,97190.31
2022-12-08T19:15:39.831Z,97197.34
2022-12-08T19:17:42.904Z,97196.63
2022-12-08T19:19:45.975Z,97192.38
2022-12-08T19:21:49.154Z,97197.44
2022-12-08T19:23:52.760Z,97184.72
2022-12-08T19:25:55.847Z,97180.53
2022-12-08T19:28:01.087Z,97181.41
2022-12-08T19:30:05.608Z,97185.91
2022-12-08T19:32:10.443Z,97186.09
2022-12-08T19:34:14.698Z,97189.63
2022-12-08T19:36:19.904Z,97186.75
2022-12-08T19:38:23.072Z,97186.75
2022-12-08T19:40:46.788Z,97191.25
2022-12-08T19:43:07.474Z,97187.13
2022-12-08T19:45:12.849Z,97183.16
2022-12-08T19:47:17.338Z,97192.00
2022-12-08T19:49:20.454Z,97190.19
2022-12-08T19:51:23.550Z,97190.19
2022-12-08T19:53:26.662Z,97189.44
2022-12-08T19:55:30.295Z,97190.47
2022-12-08T19:57:33.805Z,97186.22
2022-12-08T19:59:36.944Z,97188.06
2022-12-08T20:01:40.394Z,97188.25
2022-12-08T20:03:45.274Z,97192.41
2022-12-08T20:05:51.055Z,97183.81
2022-12-08T20:07:56.105Z,97183.09
2022-12-08T20:09:59.373Z,97174.59
2022-12-08T20:12:02.737Z,97162.59
2022-12-08T20:14:06.244Z,97164.47
2022-12-08T20:16:09.950Z,97165.38
2022-12-08T20:18:14.978Z,97168.88
2022-12-08T20:20:19.905Z,97166.38
2022-12-08T20:22:23.140Z,97161.50
2022-12-08T20:24:26.311Z,97166.31
2022-12-08T20:26:29.472Z,97159.56
2022-12-08T20:28:32.702Z,97164.00
2022-12-08T20:30:36.154Z,97168.53
2022-12-08T20:32:39.279Z,97162.59
2022-12-08T20:34:42.439Z,97167.03
2022-12-08T20:36:47.248Z,97171.47
2022-12-08T20:38:51.669Z,97174.97
2022-12-08T20:40:54.933Z,97171.19
2022-12-08T20:42:58.483Z,97170.72
2022-12-08T20:45:01.724Z,97176.25
2022-12-08T20:47:05.036Z,97171.06
2022-12-08T20:49:08.781Z,97173.66
2022-12-08T20:51:14.257Z,97177.19
2022-12-08T20:53:18.974Z,97172.03
2022-12-08T20:55:22.514Z,97177.19
2022-12-08T20:57:26.041Z,97175.50
2022-12-08T20:59:29.283Z,97173.09
2022-12-08T21:01:32.528Z,97171.63
2022-12-08T21:03:35.989Z,97169.13
2022-12-08T21:05:39.882Z,97163.31
2022-12-08T21:07:43.306Z,97165.19
2022-12-08T21:09:48.388Z,97166.00
2022-12-08T21:11:51.828Z,97166.84
2022-12-08T21:13:55.015Z,97175.50
2022-12-08T21:15:58.883Z,97168.66
2022-12-08T21:18:02.476Z,97164.44
2022-12-08T21:20:08.246Z,97160.19
2022-12-08T21:22:12.553Z,97167.38
2022-12-08T21:24:16.392Z,97165.88
2022-12-08T21:26:25.826Z,97161.00
2022-12-08T21:28:29.525Z,97160.44
2022-12-08T21:30:32.736Z,97152.78
2022-12-08T21:32:36.264Z,97153.06
2022-12-08T21:34:39.510Z,97157.53
2022-12-08T21:36:42.758Z,97157.72
2022-12-08T21:38:46.526Z,97162.97
2022-12-08T21:40:49.761Z,97155.31
2022-12-08T21:42:53.403Z,97156.34
2022-12-08T21:44:56.653Z,97156.69
2022-12-08T21:46:59.815Z,97163.34
2022-12-08T21:49:03.143Z,97156.72
2022-12-08T21:51:06.613Z,97154.41
2022-12-08T21:53:10.844Z,97159.72
2022-12-08T21:55:14.729Z,97153.25
2022-12-08T21:57:17.992Z,97155.09
2022-12-08T21:59:22.724Z,97155.25
2022-12-08T22:01:26.136Z,97161.41
2022-12-08T22:03:30.088Z,97154.78
2022-12-08T22:05:33.606Z,97162.41
2022-12-08T22:07:39.038Z,97156.41
2022-12-08T22:09:42.774Z,97162.50
2022-12-08T22:11:46.089Z,97156.41
2022-12-08T22:13:49.567Z,97159.09
2022-12-08T22:15:58.379Z,97165.34
2022-12-08T22:18:01.686Z,97169.97
2022-12-08T22:20:06.599Z,97168.41
2022-12-08T22:22:10.232Z,97159.19
2022-12-08T22:24:13.359Z,97166.25
2022-12-08T22:26:16.644Z,97161.44
2022-12-08T22:28:19.720Z,97159.28
2022-12-08T22:30:22.766Z,97161.09
2022-12-08T22:32:27.301Z,97158.63
2022-12-08T22:34:30.509Z,97160.66
2022-12-08T22:36:33.933Z,97164.91
2022-12-08T22:38:36.991Z,97158.34
2022-12-08T22:40:41.202Z,97157.59
2022-12-08T22:42:44.213Z,97148.13
2022-12-08T22:44:47.253Z,97144.00
2022-12-08T22:46:50.255Z,97145.78
2022-12-08T22:48:55.714Z,97144.25
2022-12-08T22:50:59.689Z,97137.50
2022-12-08T22:53:02.957Z,97139.66
2022-12-08T22:55:06.977Z,97133.00
2022-12-08T22:57:10.301Z,97141.81
2022-12-08T22:59:13.487Z,97132.41
2022-12-08T23:01:25.022Z,97124.88
2022-12-08T23:03:28.296Z,97127.44
2022-12-08T23:05:35.183Z,97127.44
2022-12-08T23:07:38.566Z,97119.88
2022-12-08T23:09:41.751Z,97126.09
2022-12-08T23:11:44.980Z,97124.38
2022-12-08T23:13:48.143Z,97122.94
2022-12-08T23:15:51.359Z,97115.38
2022-12-08T23:17:54.658Z,97117.22
2022-12-08T23:19:57.727Z,97109.50
2022-12-08T23:22:02.095Z,97118.03
2022-12-08T23:24:05.948Z,97115.53
2022-12-08T23:26:16.987Z,97118.19
2022-12-08T23:28:20.193Z,97119.00
2022-12-08T23:30:23.202Z,97118.34
2022-12-08T23:32:26.758Z,97118.34
2022-12-08T23:34:29.838Z,97112.22
2022-12-08T23:36:33.005Z,97103.66
2022-12-08T23:38:37.457Z,97102.25
2022-12-08T23:40:40.570Z,97097.94
2022-12-08T23:42:43.851Z,97100.50
2022-12-08T23:44:46.982Z,97097.09
2022-12-08T23:46:50.364Z,97095.44
2022-12-08T23:48:53.777Z,97087.81
2022-12-08T23:50:57.597Z,97089.56
2022-12-08T23:53:00.663Z,97088.81
2022-12-08T23:55:05.643Z,97083.84
2022-12-08T23:57:09.045Z,97083.84
2022-12-08T23:59:12.075Z,97070.19
